WMT3XC EDJA-LATI
Flight info
| Callsign | WMT3XC |
|---|---|
| Flight time | 1h 29m |
| Altitude | 37000 |
| Route | KPT4B KPT Z999 BEMKI L607 XEBIX Z2 TUNUM Z204 GEDSO DCT VEKEN DCT DARZA DCT GLOMY DCT PETAK |
| Aircraft | A321/M-SDE3FGHIRWY/LB1 |
Departure
| Time | 2026-05-08 08:33 |
|---|---|
| Airport | Memmingen Allgau Airport (EDJA) |
Arrival
| Time | 2026-05-08 10:03 |
|---|---|
| Airport | Tirana International Airport Mother Teresa (LATI) |
| Time | Latitude | Longitude | Altitude | Speed | Heading |
|---|---|---|---|---|---|
| 2026-05-08 07:34 | 47.98868 | 10.23240 | 2076 ft | 0 kts | 44° |
| 2026-05-08 08:15 | 47.98867 | 10.23239 | 2079 ft | 1 kts | 44° |
| 2026-05-08 08:15 | 47.98849 | 10.23222 | 2078 ft | 4 kts | 358° |
| 2026-05-08 08:16 | 47.98824 | 10.23230 | 2078 ft | 3 kts | 339° |
| 2026-05-08 08:16 | 47.98818 | 10.23234 | 2078 ft | 0 kts | 339° |
| 2026-05-08 08:20 | 47.98823 | 10.23231 | 2078 ft | 2 kts | 339° |
| 2026-05-08 08:20 | 47.98824 | 10.23230 | 2078 ft | 0 kts | 339° |
| 2026-05-08 08:21 | 47.98825 | 10.23230 | 2077 ft | 1 kts | 339° |
| 2026-05-08 08:21 | 47.98826 | 10.23229 | 2077 ft | 0 kts | 339° |
| 2026-05-08 08:25 | 47.98825 | 10.23230 | 2079 ft | 0 kts | 339° |
| 2026-05-08 08:26 | 47.98826 | 10.23225 | 2079 ft | 1 kts | 313° |
| 2026-05-08 08:26 | 47.98824 | 10.23218 | 2077 ft | 1 kts | 260° |
| 2026-05-08 08:26 | 47.98813 | 10.23197 | 2077 ft | 5 kts | 234° |
| 2026-05-08 08:27 | 47.98796 | 10.23144 | 2077 ft | 6 kts | 249° |
| 2026-05-08 08:27 | 47.98779 | 10.23073 | 2078 ft | 8 kts | 251° |
| 2026-05-08 08:27 | 47.98759 | 10.22991 | 2076 ft | 8 kts | 250° |
| 2026-05-08 08:27 | 47.98722 | 10.22920 | 2079 ft | 8 kts | 226° |
| 2026-05-08 08:28 | 47.98705 | 10.22831 | 2078 ft | 10 kts | 261° |
| 2026-05-08 08:28 | 47.98691 | 10.22734 | 2078 ft | 8 kts | 249° |
| 2026-05-08 08:28 | 47.98649 | 10.22715 | 2079 ft | 7 kts | 180° |
| 2026-05-08 08:28 | 47.98599 | 10.22715 | 2080 ft | 7 kts | 180° |
| 2026-05-08 08:29 | 47.98584 | 10.22714 | 2081 ft | 0 kts | 180° |
| 2026-05-08 08:29 | 47.98580 | 10.22714 | 2081 ft | 2 kts | 180° |
| 2026-05-08 08:30 | 47.98561 | 10.22714 | 2082 ft | 4 kts | 182° |
| 2026-05-08 08:30 | 47.98519 | 10.22700 | 2084 ft | 8 kts | 202° |
| 2026-05-08 08:30 | 47.98476 | 10.22640 | 2089 ft | 3 kts | 236° |
| 2026-05-08 08:31 | 47.98458 | 10.22596 | 2091 ft | 7 kts | 239° |
| 2026-05-08 08:31 | 47.98426 | 10.22538 | 2092 ft | 7 kts | 211° |
| 2026-05-08 08:31 | 47.98386 | 10.22552 | 2093 ft | 6 kts | 150° |
| 2026-05-08 08:31 | 47.98349 | 10.22590 | 2093 ft | 6 kts | 121° |
| 2026-05-08 08:32 | 47.98359 | 10.22636 | 2092 ft | 0 kts | 58° |
| 2026-05-08 08:32 | 47.98387 | 10.22705 | 2090 ft | 39 kts | 59° |
| 2026-05-08 08:33 | 47.98680 | 10.23444 | 2083 ft | 122 kts | 59° |
| 2026-05-08 08:33 | 47.99216 | 10.24827 | 2218 ft | 175 kts | 60° |
| 2026-05-08 08:33 | 47.99804 | 10.26337 | 3360 ft | 163 kts | 60° |
| 2026-05-08 08:33 | 48.00360 | 10.27741 | 4309 ft | 156 kts | 61° |
| 2026-05-08 08:34 | 48.00958 | 10.29269 | 4568 ft | 179 kts | 60° |
| 2026-05-08 08:34 | 48.01632 | 10.30963 | 4796 ft | 201 kts | 59° |
| 2026-05-08 08:34 | 48.02381 | 10.32826 | 4966 ft | 222 kts | 60° |
| 2026-05-08 08:34 | 48.03215 | 10.34913 | 5334 ft | 237 kts | 62° |
| 2026-05-08 08:35 | 48.03607 | 10.37255 | 5970 ft | 240 kts | 98° |
| 2026-05-08 08:35 | 48.02957 | 10.39514 | 6595 ft | 241 kts | 136° |
| 2026-05-08 08:35 | 48.01625 | 10.41071 | 6987 ft | 245 kts | 151° |
| 2026-05-08 08:35 | 48.00115 | 10.42272 | 7302 ft | 245 kts | 158° |
| 2026-05-08 08:36 | 47.98465 | 10.42812 | 8009 ft | 244 kts | 182° |
| 2026-05-08 08:36 | 47.96759 | 10.42486 | 8397 ft | 260 kts | 198° |
| 2026-05-08 08:36 | 47.94953 | 10.41727 | 8818 ft | 275 kts | 197° |
| 2026-05-08 08:36 | 47.93069 | 10.41047 | 9515 ft | 280 kts | 195° |
| 2026-05-08 08:37 | 47.91149 | 10.40410 | 10228 ft | 285 kts | 195° |
| 2026-05-08 08:37 | 47.89129 | 10.39757 | 10430 ft | 308 kts | 194° |
| 2026-05-08 08:37 | 47.86949 | 10.39052 | 10656 ft | 328 kts | 194° |
| 2026-05-08 08:37 | 47.84720 | 10.38327 | 11190 ft | 335 kts | 194° |
| 2026-05-08 08:38 | 47.82426 | 10.37572 | 11835 ft | 339 kts | 194° |
| 2026-05-08 08:38 | 47.80111 | 10.36805 | 12490 ft | 343 kts | 194° |
| 2026-05-08 08:38 | 47.77764 | 10.36031 | 13134 ft | 347 kts | 194° |
| 2026-05-08 08:38 | 47.75389 | 10.35248 | 13769 ft | 351 kts | 194° |
| 2026-05-08 08:39 | 47.72985 | 10.34506 | 14348 ft | 355 kts | 192° |
| 2026-05-08 08:39 | 47.71371 | 10.34079 | 14754 ft | 357 kts | 191° |
| 2026-05-08 08:39 | 47.68904 | 10.33496 | 15358 ft | 360 kts | 190° |
| 2026-05-08 08:39 | 47.66415 | 10.32947 | 15971 ft | 363 kts | 190° |
| 2026-05-08 08:40 | 47.63082 | 10.32216 | 16792 ft | 367 kts | 190° |
| 2026-05-08 08:40 | 47.61373 | 10.31834 | 17213 ft | 368 kts | 191° |
| 2026-05-08 08:40 | 47.58827 | 10.31534 | 17794 ft | 374 kts | 180° |
| 2026-05-08 08:40 | 47.56235 | 10.32063 | 18384 ft | 380 kts | 166° |
| 2026-05-08 08:41 | 47.53808 | 10.33705 | 18899 ft | 387 kts | 147° |
| 2026-05-08 08:41 | 47.51837 | 10.36439 | 19444 ft | 394 kts | 128° |
| 2026-05-08 08:41 | 47.50560 | 10.40062 | 19981 ft | 400 kts | 110° |
| 2026-05-08 08:41 | 47.49699 | 10.43932 | 20506 ft | 403 kts | 109° |
| 2026-05-08 08:42 | 47.48826 | 10.47911 | 21016 ft | 407 kts | 109° |
| 2026-05-08 08:42 | 47.47944 | 10.51918 | 21489 ft | 410 kts | 110° |
| 2026-05-08 08:42 | 47.47052 | 10.55956 | 22002 ft | 414 kts | 110° |
| 2026-05-08 08:42 | 47.46148 | 10.60020 | 22501 ft | 417 kts | 110° |
| 2026-05-08 08:43 | 47.45243 | 10.64060 | 22989 ft | 421 kts | 110° |
| 2026-05-08 08:43 | 47.44319 | 10.68179 | 23466 ft | 424 kts | 110° |
| 2026-05-08 08:43 | 47.43383 | 10.72333 | 23894 ft | 427 kts | 110° |
| 2026-05-08 08:43 | 47.42436 | 10.76518 | 24252 ft | 430 kts | 110° |
| 2026-05-08 08:44 | 47.41484 | 10.80724 | 24560 ft | 434 kts | 111° |
| 2026-05-08 08:44 | 47.40522 | 10.84977 | 24927 ft | 437 kts | 111° |
| 2026-05-08 08:44 | 47.39554 | 10.89254 | 25297 ft | 440 kts | 111° |
| 2026-05-08 08:44 | 47.38593 | 10.93506 | 25648 ft | 443 kts | 111° |
| 2026-05-08 08:45 | 47.37611 | 10.97851 | 26003 ft | 447 kts | 111° |
| 2026-05-08 08:45 | 47.36623 | 11.02206 | 26348 ft | 449 kts | 111° |
| 2026-05-08 08:45 | 47.35622 | 11.06593 | 26653 ft | 451 kts | 111° |
| 2026-05-08 08:45 | 47.34625 | 11.10945 | 26829 ft | 449 kts | 111° |
| 2026-05-08 08:46 | 47.33612 | 11.15354 | 27059 ft | 455 kts | 111° |
| 2026-05-08 08:46 | 47.32592 | 11.19787 | 27392 ft | 459 kts | 112° |
| 2026-05-08 08:46 | 47.31560 | 11.24254 | 27744 ft | 462 kts | 112° |
| 2026-05-08 08:46 | 47.30533 | 11.28692 | 28068 ft | 465 kts | 112° |
| 2026-05-08 08:47 | 47.29485 | 11.33232 | 28420 ft | 468 kts | 112° |
| 2026-05-08 08:47 | 47.28427 | 11.37796 | 28743 ft | 471 kts | 112° |
| 2026-05-08 08:47 | 47.27355 | 11.42388 | 29058 ft | 474 kts | 112° |
| 2026-05-08 08:47 | 47.26271 | 11.46999 | 29387 ft | 476 kts | 114° |
| 2026-05-08 08:48 | 47.24928 | 11.51381 | 29677 ft | 474 kts | 123° |
| 2026-05-08 08:48 | 47.23171 | 11.55467 | 29982 ft | 472 kts | 129° |
| 2026-05-08 08:48 | 47.21272 | 11.59429 | 30263 ft | 475 kts | 130° |
| 2026-05-08 08:48 | 47.19367 | 11.63408 | 30565 ft | 475 kts | 130° |
| 2026-05-08 08:49 | 47.17462 | 11.67394 | 30871 ft | 477 kts | 130° |
| 2026-05-08 08:49 | 47.15544 | 11.71405 | 31124 ft | 479 kts | 130° |
| 2026-05-08 08:49 | 47.13626 | 11.75426 | 31499 ft | 479 kts | 130° |
| 2026-05-08 08:49 | 47.11738 | 11.79381 | 31933 ft | 477 kts | 131° |
| 2026-05-08 08:50 | 47.09830 | 11.83360 | 32392 ft | 476 kts | 131° |
| 2026-05-08 08:50 | 47.07997 | 11.87410 | 32870 ft | 478 kts | 126° |
| 2026-05-08 08:50 | 47.06468 | 11.91767 | 33221 ft | 480 kts | 122° |
| 2026-05-08 08:50 | 47.05000 | 11.96157 | 33534 ft | 479 kts | 122° |
| 2026-05-08 08:51 | 47.03534 | 12.00544 | 33942 ft | 478 kts | 122° |
| 2026-05-08 08:51 | 47.02068 | 12.04919 | 34300 ft | 477 kts | 122° |
| 2026-05-08 08:51 | 47.00594 | 12.09283 | 34628 ft | 475 kts | 122° |
| 2026-05-08 08:51 | 46.99121 | 12.13611 | 34965 ft | 474 kts | 122° |
| 2026-05-08 08:52 | 46.97641 | 12.17919 | 35302 ft | 472 kts | 122° |
| 2026-05-08 08:52 | 46.96168 | 12.22157 | 35671 ft | 472 kts | 122° |
| 2026-05-08 08:52 | 46.94668 | 12.26438 | 36024 ft | 470 kts | 122° |
| 2026-05-08 08:52 | 46.93167 | 12.30687 | 36381 ft | 468 kts | 122° |
| 2026-05-08 08:53 | 46.91667 | 12.34902 | 36714 ft | 465 kts | 122° |
| 2026-05-08 08:53 | 46.90168 | 12.39088 | 37031 ft | 463 kts | 122° |
| 2026-05-08 08:53 | 46.87156 | 12.47408 | 37112 ft | 468 kts | 122° |
| 2026-05-08 08:54 | 46.84082 | 12.55817 | 37107 ft | 469 kts | 122° |
| 2026-05-08 08:54 | 46.81001 | 12.64236 | 37097 ft | 469 kts | 123° |
| 2026-05-08 08:55 | 46.77949 | 12.72605 | 37071 ft | 469 kts | 122° |
| 2026-05-08 08:55 | 46.74871 | 12.81001 | 37075 ft | 469 kts | 122° |
| 2026-05-08 08:56 | 46.71812 | 12.89354 | 37078 ft | 469 kts | 122° |
| 2026-05-08 08:56 | 46.68733 | 12.97756 | 37083 ft | 470 kts | 122° |
| 2026-05-08 08:57 | 46.65647 | 13.06174 | 37091 ft | 470 kts | 122° |
| 2026-05-08 08:57 | 46.62571 | 13.14533 | 37065 ft | 470 kts | 122° |
| 2026-05-08 08:58 | 46.59479 | 13.22921 | 37084 ft | 470 kts | 123° |
| 2026-05-08 08:58 | 46.56370 | 13.31313 | 37095 ft | 471 kts | 123° |
| 2026-05-08 08:59 | 46.53278 | 13.39637 | 37102 ft | 470 kts | 123° |
| 2026-05-08 08:59 | 46.50169 | 13.48029 | 37090 ft | 471 kts | 123° |
| 2026-05-08 09:00 | 46.47082 | 13.56372 | 37105 ft | 471 kts | 123° |
| 2026-05-08 09:00 | 46.43966 | 13.64753 | 37116 ft | 472 kts | 123° |
| 2026-05-08 09:01 | 46.40847 | 13.73152 | 37109 ft | 472 kts | 123° |
| 2026-05-08 09:01 | 46.39140 | 13.77186 | 37098 ft | 465 kts | 134° |
| 2026-05-08 09:01 | 46.36941 | 13.80566 | 37112 ft | 458 kts | 141° |
| 2026-05-08 09:02 | 46.32403 | 13.86955 | 37088 ft | 457 kts | 141° |
| 2026-05-08 09:02 | 46.27814 | 13.93362 | 37106 ft | 458 kts | 141° |
| 2026-05-08 09:03 | 46.23210 | 13.99779 | 37113 ft | 459 kts | 141° |
| 2026-05-08 09:03 | 46.18650 | 14.06133 | 37109 ft | 458 kts | 141° |
| 2026-05-08 09:04 | 46.14051 | 14.12536 | 37113 ft | 458 kts | 141° |
| 2026-05-08 09:04 | 46.09456 | 14.18921 | 37120 ft | 458 kts | 142° |
| 2026-05-08 09:05 | 46.04880 | 14.25244 | 37121 ft | 457 kts | 141° |
| 2026-05-08 09:05 | 46.00290 | 14.31581 | 37124 ft | 456 kts | 142° |
| 2026-05-08 09:06 | 45.95702 | 14.37907 | 37110 ft | 455 kts | 142° |
| 2026-05-08 09:06 | 45.91122 | 14.44203 | 37110 ft | 455 kts | 142° |
| 2026-05-08 09:07 | 45.86562 | 14.50456 | 37108 ft | 455 kts | 142° |
| 2026-05-08 09:07 | 45.81978 | 14.56730 | 37111 ft | 455 kts | 142° |
| 2026-05-08 09:08 | 45.77388 | 14.62980 | 37110 ft | 455 kts | 142° |
| 2026-05-08 09:08 | 45.72819 | 14.69195 | 37102 ft | 455 kts | 142° |
| 2026-05-08 09:09 | 45.68222 | 14.75456 | 37106 ft | 455 kts | 142° |
| 2026-05-08 09:09 | 45.63615 | 14.81704 | 37111 ft | 455 kts | 142° |
| 2026-05-08 09:10 | 45.59039 | 14.87882 | 37093 ft | 455 kts | 142° |
| 2026-05-08 09:10 | 45.54424 | 14.94086 | 37111 ft | 455 kts | 142° |
| 2026-05-08 09:11 | 45.49817 | 15.00268 | 37110 ft | 454 kts | 142° |
| 2026-05-08 09:11 | 45.45284 | 15.06572 | 37112 ft | 456 kts | 140° |
| 2026-05-08 09:12 | 45.40877 | 15.13028 | 37121 ft | 457 kts | 139° |
| 2026-05-08 09:12 | 45.36448 | 15.19499 | 37122 ft | 456 kts | 140° |
| 2026-05-08 09:13 | 45.31981 | 15.25900 | 37122 ft | 455 kts | 140° |
| 2026-05-08 09:13 | 45.27494 | 15.32272 | 37125 ft | 454 kts | 140° |
| 2026-05-08 09:14 | 45.23032 | 15.38612 | 37117 ft | 454 kts | 140° |
| 2026-05-08 09:14 | 45.18593 | 15.44930 | 37118 ft | 454 kts | 140° |
| 2026-05-08 09:15 | 45.14120 | 15.51267 | 37114 ft | 454 kts | 140° |
| 2026-05-08 09:15 | 45.09647 | 15.57591 | 37084 ft | 453 kts | 140° |
| 2026-05-08 09:16 | 45.05197 | 15.63875 | 37116 ft | 453 kts | 140° |
| 2026-05-08 09:16 | 45.00723 | 15.70176 | 37111 ft | 453 kts | 140° |
| 2026-05-08 09:17 | 44.96277 | 15.76420 | 37112 ft | 453 kts | 140° |
| 2026-05-08 09:17 | 44.91801 | 15.82683 | 37100 ft | 453 kts | 140° |
| 2026-05-08 09:18 | 44.87322 | 15.88949 | 37107 ft | 452 kts | 140° |
| 2026-05-08 09:18 | 44.82874 | 15.95156 | 37101 ft | 452 kts | 140° |
| 2026-05-08 09:19 | 44.78399 | 16.01387 | 37108 ft | 451 kts | 140° |
| 2026-05-08 09:19 | 44.73934 | 16.07602 | 37108 ft | 450 kts | 140° |
| 2026-05-08 09:20 | 44.69460 | 16.13785 | 37095 ft | 450 kts | 140° |
| 2026-05-08 09:20 | 44.64979 | 16.19954 | 37093 ft | 450 kts | 140° |
| 2026-05-08 09:21 | 44.60499 | 16.26126 | 37098 ft | 451 kts | 140° |
| 2026-05-08 09:23 | 44.44824 | 16.47648 | 37081 ft | 452 kts | 140° |
| 2026-05-08 09:23 | 44.40334 | 16.53765 | 37082 ft | 452 kts | 140° |
| 2026-05-08 09:24 | 44.35817 | 16.59922 | 37072 ft | 452 kts | 140° |
| 2026-05-08 09:24 | 44.31309 | 16.66054 | 37065 ft | 452 kts | 140° |
| 2026-05-08 09:25 | 44.26825 | 16.72134 | 37082 ft | 452 kts | 140° |
| 2026-05-08 09:25 | 44.22308 | 16.78234 | 37087 ft | 452 kts | 140° |
| 2026-05-08 09:26 | 44.18551 | 16.83293 | 37081 ft | 451 kts | 140° |
| 2026-05-08 09:26 | 44.14025 | 16.89404 | 37092 ft | 452 kts | 140° |
| 2026-05-08 09:27 | 44.09510 | 16.95485 | 37064 ft | 451 kts | 140° |
| 2026-05-08 09:27 | 44.04996 | 17.01535 | 37077 ft | 450 kts | 140° |
| 2026-05-08 09:28 | 44.00495 | 17.07540 | 37091 ft | 451 kts | 140° |
| 2026-05-08 09:28 | 43.95958 | 17.13577 | 37093 ft | 451 kts | 140° |
| 2026-05-08 09:29 | 43.91440 | 17.19608 | 37086 ft | 452 kts | 140° |
| 2026-05-08 09:29 | 43.86889 | 17.25660 | 37094 ft | 452 kts | 140° |
| 2026-05-08 09:30 | 43.82351 | 17.31686 | 37105 ft | 450 kts | 141° |
| 2026-05-08 09:30 | 43.77839 | 17.37651 | 37102 ft | 450 kts | 141° |
| 2026-05-08 09:31 | 43.73306 | 17.43632 | 37105 ft | 449 kts | 141° |
| 2026-05-08 09:31 | 43.68772 | 17.49604 | 37096 ft | 448 kts | 141° |
| 2026-05-08 09:32 | 43.64274 | 17.55521 | 37100 ft | 448 kts | 141° |
| 2026-05-08 09:32 | 43.59749 | 17.61446 | 37096 ft | 447 kts | 141° |
| 2026-05-08 09:33 | 43.55145 | 17.67163 | 37098 ft | 442 kts | 149° |
| 2026-05-08 09:33 | 43.50110 | 17.71982 | 37095 ft | 440 kts | 149° |
| 2026-05-08 09:34 | 43.45100 | 17.76775 | 37093 ft | 440 kts | 149° |
| 2026-05-08 09:34 | 43.40058 | 17.81586 | 37078 ft | 440 kts | 149° |
| 2026-05-08 09:35 | 43.35050 | 17.86352 | 37072 ft | 439 kts | 149° |
| 2026-05-08 09:35 | 43.30027 | 17.91114 | 37075 ft | 439 kts | 149° |
| 2026-05-08 09:36 | 43.24984 | 17.95903 | 37078 ft | 439 kts | 149° |
| 2026-05-08 09:36 | 43.19986 | 18.00624 | 37076 ft | 439 kts | 149° |
| 2026-05-08 09:37 | 43.14946 | 18.05375 | 37064 ft | 439 kts | 149° |
| 2026-05-08 09:37 | 43.09908 | 18.10107 | 37054 ft | 439 kts | 149° |
| 2026-05-08 09:38 | 43.04869 | 18.14837 | 37060 ft | 439 kts | 149° |
| 2026-05-08 09:38 | 43.02345 | 18.17201 | 36824 ft | 441 kts | 149° |
| 2026-05-08 09:38 | 42.99835 | 18.19548 | 36227 ft | 442 kts | 149° |
| 2026-05-08 09:38 | 42.97300 | 18.21917 | 35731 ft | 439 kts | 149° |
| 2026-05-08 09:39 | 42.94787 | 18.24269 | 35257 ft | 437 kts | 149° |
| 2026-05-08 09:39 | 42.92283 | 18.26613 | 34777 ft | 435 kts | 148° |
| 2026-05-08 09:39 | 42.89796 | 18.28938 | 34301 ft | 432 kts | 148° |
| 2026-05-08 09:39 | 42.87319 | 18.31250 | 33794 ft | 430 kts | 148° |
| 2026-05-08 09:40 | 42.84857 | 18.33545 | 33327 ft | 426 kts | 148° |
| 2026-05-08 09:40 | 42.82415 | 18.35820 | 32851 ft | 422 kts | 148° |
| 2026-05-08 09:40 | 42.80025 | 18.38043 | 32378 ft | 419 kts | 148° |
| 2026-05-08 09:40 | 42.77598 | 18.40299 | 31910 ft | 415 kts | 148° |
| 2026-05-08 09:41 | 42.75251 | 18.42479 | 31453 ft | 412 kts | 148° |
| 2026-05-08 09:41 | 42.72890 | 18.44670 | 30986 ft | 409 kts | 148° |
| 2026-05-08 09:41 | 42.70540 | 18.46846 | 30533 ft | 407 kts | 148° |
| 2026-05-08 09:41 | 42.68198 | 18.49010 | 30087 ft | 403 kts | 148° |
| 2026-05-08 09:42 | 42.65881 | 18.51150 | 29603 ft | 400 kts | 148° |
| 2026-05-08 09:42 | 42.63588 | 18.53269 | 29164 ft | 396 kts | 148° |
| 2026-05-08 09:42 | 42.61345 | 18.55338 | 28757 ft | 392 kts | 148° |
| 2026-05-08 09:42 | 42.59090 | 18.57414 | 28342 ft | 389 kts | 148° |
| 2026-05-08 09:43 | 42.56850 | 18.59469 | 27859 ft | 388 kts | 148° |
| 2026-05-08 09:43 | 42.54629 | 18.61504 | 27519 ft | 383 kts | 148° |
| 2026-05-08 09:43 | 42.52424 | 18.63528 | 27141 ft | 380 kts | 148° |
| 2026-05-08 09:43 | 42.50246 | 18.65530 | 26768 ft | 377 kts | 148° |
| 2026-05-08 09:44 | 42.48078 | 18.67523 | 26382 ft | 374 kts | 148° |
| 2026-05-08 09:44 | 42.45932 | 18.69493 | 26008 ft | 371 kts | 148° |
| 2026-05-08 09:44 | 42.43827 | 18.71427 | 25620 ft | 368 kts | 148° |
| 2026-05-08 09:44 | 42.41717 | 18.73364 | 25233 ft | 366 kts | 148° |
| 2026-05-08 09:45 | 42.39609 | 18.75291 | 24823 ft | 364 kts | 148° |
| 2026-05-08 09:45 | 42.37513 | 18.77202 | 24427 ft | 362 kts | 148° |
| 2026-05-08 09:45 | 42.35432 | 18.79102 | 24030 ft | 359 kts | 148° |
| 2026-05-08 09:45 | 42.33383 | 18.80974 | 23641 ft | 359 kts | 147° |
| 2026-05-08 09:46 | 42.31304 | 18.82870 | 23183 ft | 361 kts | 148° |
| 2026-05-08 09:46 | 42.29225 | 18.84792 | 22565 ft | 365 kts | 146° |
| 2026-05-08 09:46 | 42.27136 | 18.86876 | 21617 ft | 379 kts | 144° |
| 2026-05-08 09:46 | 42.25077 | 18.89061 | 21248 ft | 372 kts | 143° |
| 2026-05-08 09:47 | 42.23070 | 18.91247 | 20715 ft | 370 kts | 143° |
| 2026-05-08 09:47 | 42.21092 | 18.93407 | 20280 ft | 359 kts | 143° |
| 2026-05-08 09:47 | 42.19166 | 18.95494 | 19370 ft | 361 kts | 143° |
| 2026-05-08 09:47 | 42.17192 | 18.97610 | 18483 ft | 362 kts | 144° |
| 2026-05-08 09:48 | 42.15210 | 18.99716 | 17495 ft | 363 kts | 143° |
| 2026-05-08 09:48 | 42.13222 | 19.01812 | 16536 ft | 362 kts | 143° |
| 2026-05-08 09:48 | 42.11265 | 19.03863 | 16010 ft | 348 kts | 143° |
| 2026-05-08 09:48 | 42.09388 | 19.05829 | 15603 ft | 333 kts | 143° |
| 2026-05-08 09:49 | 42.07594 | 19.07710 | 15206 ft | 321 kts | 143° |
| 2026-05-08 09:49 | 42.05858 | 19.09528 | 14738 ft | 312 kts | 143° |
| 2026-05-08 09:49 | 42.04185 | 19.11280 | 14277 ft | 304 kts | 142° |
| 2026-05-08 09:49 | 42.02527 | 19.13019 | 13786 ft | 298 kts | 142° |
| 2026-05-08 09:50 | 42.00906 | 19.14720 | 13255 ft | 292 kts | 142° |
| 2026-05-08 09:50 | 41.99316 | 19.16386 | 12741 ft | 286 kts | 142° |
| 2026-05-08 09:50 | 41.97756 | 19.18020 | 12225 ft | 282 kts | 141° |
| 2026-05-08 09:50 | 41.96247 | 19.19672 | 11716 ft | 276 kts | 133° |
| 2026-05-08 09:51 | 41.95017 | 19.21587 | 11227 ft | 272 kts | 129° |
| 2026-05-08 09:51 | 41.93790 | 19.23539 | 10743 ft | 274 kts | 129° |
| 2026-05-08 09:51 | 41.92557 | 19.25497 | 10260 ft | 275 kts | 129° |
| 2026-05-08 09:51 | 41.91314 | 19.27460 | 9759 ft | 275 kts | 128° |
| 2026-05-08 09:52 | 41.90069 | 19.29422 | 9220 ft | 274 kts | 128° |
| 2026-05-08 09:52 | 41.88848 | 19.31346 | 8694 ft | 266 kts | 128° |
| 2026-05-08 09:52 | 41.87663 | 19.33214 | 8180 ft | 259 kts | 128° |
| 2026-05-08 09:52 | 41.86518 | 19.35017 | 7680 ft | 254 kts | 128° |
| 2026-05-08 09:53 | 41.85383 | 19.36800 | 7196 ft | 250 kts | 128° |
| 2026-05-08 09:53 | 41.84267 | 19.38552 | 6945 ft | 244 kts | 128° |
| 2026-05-08 09:53 | 41.83170 | 19.40273 | 6698 ft | 241 kts | 127° |
| 2026-05-08 09:53 | 41.82082 | 19.41982 | 6448 ft | 240 kts | 127° |
| 2026-05-08 09:54 | 41.81000 | 19.43685 | 6200 ft | 239 kts | 127° |
| 2026-05-08 09:54 | 41.79921 | 19.45382 | 5941 ft | 239 kts | 128° |
| 2026-05-08 09:54 | 41.78844 | 19.47073 | 5679 ft | 239 kts | 128° |
| 2026-05-08 09:54 | 41.77777 | 19.48747 | 5468 ft | 240 kts | 128° |
| 2026-05-08 09:55 | 41.76694 | 19.50442 | 5216 ft | 239 kts | 128° |
| 2026-05-08 09:55 | 41.75612 | 19.52133 | 4967 ft | 238 kts | 128° |
| 2026-05-08 09:55 | 41.74528 | 19.53825 | 4705 ft | 239 kts | 129° |
| 2026-05-08 09:55 | 41.73446 | 19.55513 | 4458 ft | 238 kts | 129° |
| 2026-05-08 09:56 | 41.72390 | 19.57162 | 4210 ft | 234 kts | 128° |
| 2026-05-08 09:56 | 41.71341 | 19.58802 | 4063 ft | 227 kts | 128° |
| 2026-05-08 09:56 | 41.70327 | 19.60388 | 4000 ft | 222 kts | 128° |
| 2026-05-08 09:56 | 41.69323 | 19.61954 | 4028 ft | 222 kts | 128° |
| 2026-05-08 09:57 | 41.67343 | 19.65050 | 4011 ft | 213 kts | 128° |
| 2026-05-08 09:57 | 41.66381 | 19.66556 | 4024 ft | 212 kts | 128° |
| 2026-05-08 09:57 | 41.65387 | 19.68011 | 4004 ft | 213 kts | 137° |
| 2026-05-08 09:58 | 41.64078 | 19.68962 | 4027 ft | 217 kts | 160° |
| 2026-05-08 09:58 | 41.62566 | 19.69259 | 3944 ft | 221 kts | 171° |
| 2026-05-08 09:58 | 41.61085 | 19.69446 | 3720 ft | 210 kts | 171° |
| 2026-05-08 09:58 | 41.59663 | 19.69630 | 3438 ft | 199 kts | 171° |
| 2026-05-08 09:59 | 41.58318 | 19.69809 | 3181 ft | 190 kts | 172° |
| 2026-05-08 09:59 | 41.57029 | 19.69982 | 2932 ft | 181 kts | 171° |
| 2026-05-08 09:59 | 41.55789 | 19.70147 | 2697 ft | 176 kts | 171° |
| 2026-05-08 09:59 | 41.54604 | 19.70306 | 2468 ft | 171 kts | 171° |
| 2026-05-08 10:00 | 41.53432 | 19.70462 | 2258 ft | 165 kts | 171° |
| 2026-05-08 10:00 | 41.52356 | 19.70605 | 2049 ft | 148 kts | 172° |
| 2026-05-08 10:00 | 41.51353 | 19.70739 | 1838 ft | 142 kts | 172° |
| 2026-05-08 10:00 | 41.50374 | 19.70870 | 1664 ft | 141 kts | 169° |
| 2026-05-08 10:01 | 41.49391 | 19.70997 | 1466 ft | 142 kts | 171° |
| 2026-05-08 10:01 | 41.48425 | 19.71105 | 1298 ft | 142 kts | 171° |
| 2026-05-08 10:01 | 41.47438 | 19.71219 | 1132 ft | 143 kts | 171° |
| 2026-05-08 10:01 | 41.46453 | 19.71372 | 928 ft | 140 kts | 171° |
| 2026-05-08 10:02 | 41.45488 | 19.71510 | 737 ft | 138 kts | 172° |
| 2026-05-08 10:02 | 41.44546 | 19.71640 | 541 ft | 136 kts | 173° |
| 2026-05-08 10:02 | 41.43612 | 19.71771 | 354 ft | 137 kts | 173° |
| 2026-05-08 10:02 | 41.42667 | 19.71900 | 163 ft | 134 kts | 172° |
| 2026-05-08 10:03 | 41.41825 | 19.72024 | 125 ft | 101 kts | 175° |
| 2026-05-08 10:03 | 41.41424 | 19.72064 | 125 ft | 18 kts | 175° |
| 2026-05-08 10:03 | 41.41336 | 19.72056 | 128 ft | 13 kts | 185° |
| 2026-05-08 10:03 | 41.41295 | 19.72074 | 127 ft | 2 kts | 73° |
| 2026-05-08 10:04 | 41.41305 | 19.72079 | 127 ft | 2 kts | 3° |
| 2026-05-08 10:04 | 41.41349 | 19.72073 | 124 ft | 11 kts | 354° |
| 2026-05-08 10:04 | 41.41452 | 19.72060 | 128 ft | 19 kts | 354° |
| 2026-05-08 10:04 | 41.41606 | 19.72039 | 125 ft | 24 kts | 354° |
| 2026-05-08 10:05 | 41.41772 | 19.72016 | 125 ft | 23 kts | 354° |
| 2026-05-08 10:05 | 41.41867 | 19.71988 | 126 ft | 10 kts | 309° |
| 2026-05-08 10:05 | 41.41872 | 19.71904 | 127 ft | 8 kts | 265° |
| 2026-05-08 10:05 | 41.41868 | 19.71833 | 131 ft | 8 kts | 265° |
| 2026-05-08 10:06 | 41.41863 | 19.71760 | 132 ft | 8 kts | 265° |
| 2026-05-08 10:06 | 41.41858 | 19.71675 | 132 ft | 10 kts | 265° |
| 2026-05-08 10:06 | 41.41869 | 19.71598 | 132 ft | 7 kts | 313° |
| 2026-05-08 10:06 | 41.41923 | 19.71578 | 132 ft | 9 kts | 354° |
| 2026-05-08 10:07 | 41.41991 | 19.71570 | 132 ft | 10 kts | 354° |
| 2026-05-08 10:07 | 41.42057 | 19.71561 | 132 ft | 10 kts | 355° |
| 2026-05-08 10:07 | 41.42127 | 19.71552 | 132 ft | 10 kts | 354° |
| 2026-05-08 10:07 | 41.42167 | 19.71546 | 132 ft | 1 kts | 354° |
| 2026-05-08 10:08 | 41.42170 | 19.71546 | 132 ft | 0 kts | 354° |
| 2026-05-08 10:08 | 41.42177 | 19.71542 | 132 ft | 2 kts | 336° |
| 2026-05-08 10:08 | 41.42183 | 19.71526 | 132 ft | 3 kts | 291° |
| 2026-05-08 10:08 | 41.42184 | 19.71489 | 132 ft | 3 kts | 265° |
| 2026-05-08 10:09 | 41.42183 | 19.71487 | 132 ft | 0 kts | 265° |
| 2026-05-08 10:09 | 41.42183 | 19.71486 | 132 ft | 0 kts | 265° |